Ulmodrome de Limoux

METAR LFBO TAF LFBO
6 °C
°C
-
°C
25m
Wiek
21:24:32
LT
20:24
UTC
0 ft

1.000

2.000

3.000

4.000

5.000

VFR
<?= Yii::t('app', 'Wind direction') ?> <?= Yii::t('app', 'of'); ?>
280°
08:05
Wschód słońca
61%
Wilgotność
Siła wiatru
Zamknięte/Śnieg
Zasięg wzroku na RWY
Stan RWY
Widzialność pionowa
Min. widoczność
CAVOK
Trend
Korekta
Raport specjalny
1029 hPa
QNH
METAR LFBO 062000Z AUTO 28003KT CAVOK 06/M01 Q1029 NOSIG
Niebo czyste
0 kt
0 kt
21:00
VFR
3 kt
22:00
VFR
3 kt
23:00
VFR
3 kt
00:00
VFR
3 kt
01:00
VFR
3 kt
02:00
VFR
3 kt
03:00
VFR
3 kt
10 km+
Widoczność
Brak
Sufit
3 kt
Wiatr
metar-taf.com/FR-0329

Metar-Taf.com

Dekoder wizualny

My i strony trzecie śledzimy Twoje zachowanie internetowe na naszej stronie za pomocą plików cookie. Jeśli kontynuujesz, zakładamy, że zgadzasz się z naszymi polityka plików cookie.